Time;durP1;ratioP1;P1;durP2;ratioP2;P2;SDS_P1;SDS_P2;PMS_P1;PMS_P2;Temp;Humidity;BMP_temperature;BMP_pressure;BME280_temperature;BME280_humidity;BME280_pressure;Samples;Min_cycle;Max_cycle;Signal;HPM_P1;HPM_P2
2024/01/29 00:00:15;0.00;0.00;0.62;0.00;0.00;0.62;2.20;1.63;;;21.40;22.20;;;;;;2225005;62;20454;-67
2024/01/29 00:03:00;0.00;0.00;0.62;0.00;0.00;0.62;2.80;1.93;;;21.40;22.10;;;;;;2222161;62;20849;-66
2024/01/29 00:05:45;0.00;0.00;0.62;0.00;0.00;0.62;2.83;1.90;;;21.30;22.10;;;;;;2225605;62;20372;-70
2024/01/29 00:08:30;0.00;0.00;0.62;0.00;0.00;0.62;2.60;1.70;;;21.40;22.20;;;;;;2225674;62;20768;-67
2024/01/29 00:11:16;0.00;0.00;0.62;0.00;0.00;0.62;2.60;1.63;;;21.30;22.10;;;;;;2225526;62;20909;-66
2024/01/29 00:14:00;0.00;0.00;0.62;0.00;0.00;0.62;2.13;1.90;;;21.30;22.10;;;;;;2225817;62;20369;-66
2024/01/29 00:16:47;0.00;0.00;0.62;0.00;0.00;0.62;2.43;1.70;;;21.30;22.10;;;;;;2225553;62;20389;-67
2024/01/29 00:19:31;0.00;0.00;0.62;0.00;0.00;0.62;3.27;2.00;;;21.30;22.10;;;;;;2225364;62;20764;-66
2024/01/29 00:22:16;0.00;0.00;0.62;0.00;0.00;0.62;2.30;1.63;;;21.30;22.10;;;;;;2225609;62;20389;-68
2024/01/29 00:25:00;0.00;0.00;0.62;0.00;0.00;0.62;2.70;1.80;;;21.30;22.20;;;;;;2222589;62;20426;-67
2024/01/29 00:27:46;0.00;0.00;0.62;0.00;0.00;0.62;2.60;1.57;;;21.30;22.20;;;;;;2222480;62;20361;-66
2024/01/29 00:30:33;0.00;0.00;0.62;0.00;0.00;0.62;2.70;1.80;;;21.30;22.20;;;;;;2225469;62;20405;-67
2024/01/29 00:33:19;0.00;0.00;0.62;0.00;0.00;0.62;2.40;1.73;;;21.30;22.20;;;;;;2225383;62;20349;-68
2024/01/29 00:36:04;0.00;0.00;0.62;0.00;0.00;0.62;2.50;1.50;;;21.30;22.20;;;;;;2225509;62;20872;-70
2024/01/29 00:38:49;0.00;0.00;0.62;0.00;0.00;0.62;2.50;2.03;;;21.30;22.20;;;;;;2225369;62;20401;-66
2024/01/29 00:41:34;0.00;0.00;0.62;0.00;0.00;0.62;1.97;1.40;;;21.30;22.20;;;;;;2225399;62;20397;-67
2024/01/29 00:44:19;0.00;0.00;0.62;0.00;0.00;0.62;2.50;1.60;;;21.30;22.20;;;;;;2225419;62;20398;-67
2024/01/29 00:47:04;0.00;0.00;0.62;0.00;0.00;0.62;2.77;1.73;;;21.30;22.30;;;;;;2225419;62;20373;-67
2024/01/29 00:49:49;0.00;0.00;0.62;0.00;0.00;0.62;2.00;1.40;;;21.30;22.30;;;;;;2222141;62;20429;-67
2024/01/29 00:52:33;0.00;0.00;0.62;0.00;0.00;0.62;2.03;1.50;;;21.30;22.30;;;;;;2225146;62;20381;-66
2024/01/29 00:55:18;0.00;0.00;0.62;0.00;0.00;0.62;2.00;1.30;;;21.30;22.30;;;;;;2225356;62;20913;-68
2024/01/29 00:58:03;0.00;0.00;0.62;0.00;0.00;0.62;2.23;1.57;;;21.30;22.30;;;;;;2225335;62;20361;-67
2024/01/29 01:00:49;0.00;0.00;0.62;0.00;0.00;0.62;2.23;1.43;;;21.30;22.30;;;;;;2225298;62;20353;-66
2024/01/29 01:03:34;0.00;0.00;0.62;0.00;0.00;0.62;2.67;1.67;;;21.30;22.30;;;;;;2225138;62;20357;-68
2024/01/29 01:06:19;0.00;0.00;0.62;0.00;0.00;0.62;2.30;1.60;;;21.30;22.30;;;;;;2222087;62;20466;-67
2024/01/29 01:09:04;0.00;0.00;0.62;0.00;0.00;0.62;1.67;1.43;;;21.30;22.30;;;;;;2225139;62;20373;-67
2024/01/29 01:11:48;0.00;0.00;0.62;0.00;0.00;0.62;2.97;1.70;;;21.30;22.30;;;;;;2225162;62;20489;-70
2024/01/29 01:14:33;0.00;0.00;0.62;0.00;0.00;0.62;2.10;1.47;;;21.30;22.30;;;;;;2224879;62;20446;-67
2024/01/29 01:17:19;0.00;0.00;0.62;0.00;0.00;0.62;2.27;1.43;;;21.30;22.30;;;;;;2225364;62;20415;-66
2024/01/29 01:20:06;0.00;0.00;0.62;0.00;0.00;0.62;2.23;1.60;;;21.30;22.30;;;;;;2224836;62;20373;-67
2024/01/29 01:22:50;0.00;0.00;0.62;0.00;0.00;0.62;2.20;1.73;;;21.30;22.30;;;;;;2225283;62;20412;-67
2024/01/29 01:25:35;0.00;0.00;0.62;0.00;0.00;0.62;2.03;1.40;;;21.30;22.30;;;;;;2225111;62;20365;-67
2024/01/29 01:28:19;0.00;0.00;0.62;0.00;0.00;0.62;2.10;1.50;;;21.30;22.30;;;;;;2219359;62;20365;-67
2024/01/29 01:31:04;0.00;0.00;0.62;0.00;0.00;0.62;2.00;1.47;;;21.30;22.30;;;;;;2224815;62;20484;-66
2024/01/29 01:33:50;0.00;0.00;0.62;0.00;0.00;0.62;2.53;1.47;;;21.30;22.30;;;;;;2225083;62;20349;-68
2024/01/29 01:36:34;0.00;0.00;0.62;0.00;0.00;0.62;2.43;1.60;;;21.30;22.30;;;;;;2225163;62;20935;-67
2024/01/29 01:39:20;0.00;0.00;0.62;0.00;0.00;0.62;2.27;1.47;;;21.30;22.30;;;;;;2225085;62;20895;-67
2024/01/29 01:42:05;0.00;0.00;0.62;0.00;0.00;0.62;2.40;1.70;;;21.20;22.20;;;;;;2224974;62;20388;-67
2024/01/29 01:44:50;0.00;0.00;0.62;0.00;0.00;0.62;2.93;1.60;;;21.20;22.20;;;;;;2221870;62;20386;-67
2024/01/29 01:47:35;0.00;0.00;0.62;0.00;0.00;0.62;1.90;1.20;;;21.20;22.20;;;;;;2224970;62;20365;-67
2024/01/29 01:50:22;0.00;0.00;0.62;0.00;0.00;0.62;2.07;1.40;;;21.20;22.20;;;;;;2221973;62;20401;-66
2024/01/29 01:53:06;0.00;0.00;0.62;0.00;0.00;0.62;2.73;1.87;;;21.30;22.30;;;;;;2221985;62;20397;-68
2024/01/29 01:55:52;0.00;0.00;0.62;0.00;0.00;0.62;2.10;1.30;;;21.20;22.20;;;;;;2225269;62;20920;-67
2024/01/29 01:58:37;0.00;0.00;0.62;0.00;0.00;0.62;2.00;1.43;;;21.20;22.20;;;;;;2225315;62;20750;-68
2024/01/29 02:01:22;0.00;0.00;0.62;0.00;0.00;0.62;2.77;1.63;;;21.20;22.20;;;;;;2225088;62;20434;-68
2024/01/29 02:04:08;0.00;0.00;0.62;0.00;0.00;0.62;2.63;1.43;;;21.20;22.20;;;;;;2224821;62;20823;-70
2024/01/29 02:06:54;0.00;0.00;0.62;0.00;0.00;0.62;2.27;1.40;;;21.20;22.20;;;;;;2225034;62;21146;-69
2024/01/29 02:09:39;0.00;0.00;0.62;0.00;0.00;0.62;2.50;1.50;;;21.20;22.10;;;;;;2225292;62;20864;-66
2024/01/29 02:12:24;0.00;0.00;0.62;0.00;0.00;0.62;2.43;1.40;;;21.20;22.10;;;;;;2225138;62;20380;-67
2024/01/29 02:15:09;0.00;0.00;0.62;0.00;0.00;0.62;2.63;1.63;;;21.20;22.10;;;;;;2222140;62;20349;-65
2024/01/29 02:17:54;0.00;0.00;0.62;0.00;0.00;0.62;2.30;1.50;;;21.20;22.10;;;;;;2224972;62;20446;-66
2024/01/29 02:20:38;0.00;0.00;0.62;0.00;0.00;0.62;2.10;1.40;;;21.20;22.10;;;;;;2225954;62;20760;-66
2024/01/29 02:23:24;0.00;0.00;0.62;0.00;0.00;0.62;1.90;1.10;;;21.20;22.10;;;;;;2226332;62;20438;-65
2024/01/29 02:26:09;0.00;0.00;0.62;0.00;0.00;0.62;1.60;1.10;;;21.20;22.20;;;;;;2222660;62;20361;-68
2024/01/29 02:28:54;0.00;0.00;0.62;0.00;0.00;0.62;1.60;1.13;;;21.20;22.20;;;;;;2409587;46;20445;-68
2024/01/29 02:31:39;0.00;0.00;0.62;0.00;0.00;0.62;2.00;1.30;;;21.20;22.20;;;;;;2222768;59;20430;-68
2024/01/29 02:34:23;0.00;0.00;0.62;0.00;0.00;0.62;2.00;1.43;;;21.20;22.20;;;;;;2221654;62;20421;-66
2024/01/29 02:37:08;0.00;0.00;0.62;0.00;0.00;0.62;2.30;1.60;;;21.20;22.20;;;;;;2221530;62;20373;-69
2024/01/29 02:39:54;0.00;0.00;0.62;0.00;0.00;0.62;2.23;1.43;;;21.20;22.20;;;;;;2224838;62;20787;-68
2024/01/29 02:42:40;0.00;0.00;0.62;0.00;0.00;0.62;2.10;1.30;;;21.10;22.20;;;;;;2224553;62;20396;-68
2024/01/29 02:45:25;0.00;0.00;0.62;0.00;0.00;0.62;2.30;1.40;;;21.20;22.30;;;;;;2224654;62;20794;-67
2024/01/29 02:48:10;0.00;0.00;0.62;0.00;0.00;0.62;2.30;1.40;;;21.20;22.30;;;;;;2224431;62;20948;-67
2024/01/29 02:50:54;0.00;0.00;0.62;0.00;0.00;0.62;1.90;1.10;;;21.10;22.30;;;;;;2224474;62;20979;-68
2024/01/29 02:53:38;0.00;0.00;0.62;0.00;0.00;0.62;2.17;1.10;;;21.20;22.30;;;;;;2224821;62;20376;-66
2024/01/29 02:56:24;0.00;0.00;0.62;0.00;0.00;0.62;2.87;1.13;;;21.10;22.30;;;;;;2221642;62;20872;-66
2024/01/29 02:59:09;0.00;0.00;0.62;0.00;0.00;0.62;1.87;1.27;;;21.10;22.30;;;;;;2224443;62;20381;-65
2024/01/29 03:01:55;0.00;0.00;0.62;0.00;0.00;0.62;1.73;1.10;;;21.10;22.30;;;;;;2221156;62;20453;-67
2024/01/29 03:04:40;0.00;0.00;0.62;0.00;0.00;0.62;2.10;1.30;;;21.20;22.40;;;;;;2221168;62;20373;-67
2024/01/29 03:07:24;0.00;0.00;0.62;0.00;0.00;0.62;1.90;1.20;;;21.10;22.30;;;;;;2224514;62;20379;-66
2024/01/29 03:10:09;0.00;0.00;0.62;0.00;0.00;0.62;1.67;1.20;;;21.10;22.30;;;;;;2224594;62;20446;-70
2024/01/29 03:12:57;0.00;0.00;0.62;0.00;0.00;0.62;1.70;1.00;;;21.10;22.40;;;;;;2224483;62;20872;-67
2024/01/29 03:15:44;0.00;0.00;0.62;0.00;0.00;0.62;1.90;1.13;;;21.10;22.30;;;;;;2224666;62;20940;-69
2024/01/29 03:18:29;0.00;0.00;0.62;0.00;0.00;0.62;2.03;1.20;;;21.10;22.40;;;;;;2224641;62;20925;-67
2024/01/29 03:21:14;0.00;0.00;0.62;0.00;0.00;0.62;1.90;1.30;;;21.10;22.40;;;;;;2224613;62;20960;-67
2024/01/29 03:23:59;0.00;0.00;0.62;0.00;0.00;0.62;1.50;0.90;;;21.10;22.40;;;;;;2224872;62;20421;-66
2024/01/29 03:26:43;0.00;0.00;0.62;0.00;0.00;0.62;1.47;1.07;;;21.10;22.40;;;;;;2224468;62;20481;-67
2024/01/29 03:29:29;0.00;0.00;0.62;0.00;0.00;0.62;2.07;1.00;;;21.10;22.40;;;;;;2224755;62;20449;-67
2024/01/29 03:32:14;0.00;0.00;0.62;0.00;0.00;0.62;2.03;1.30;;;21.10;22.40;;;;;;2224388;62;20397;-67
2024/01/29 03:34:58;0.00;0.00;0.62;0.00;0.00;0.62;1.50;1.00;;;21.10;22.40;;;;;;2224777;62;20384;-67
2024/01/29 03:37:44;0.00;0.00;0.62;0.00;0.00;0.62;1.60;1.00;;;21.10;22.40;;;;;;2225181;62;20372;-67
2024/01/29 03:40:28;0.00;0.00;0.62;0.00;0.00;0.62;2.17;1.17;;;21.10;22.40;;;;;;2225194;62;20421;-70
2024/01/29 03:43:13;0.00;0.00;0.62;0.00;0.00;0.62;1.90;1.10;;;21.10;22.40;;;;;;2225251;62;20372;-67
2024/01/29 03:45:59;0.00;0.00;0.62;0.00;0.00;0.62;1.83;1.00;;;21.10;22.40;;;;;;2225548;62;20376;-67
2024/01/29 03:48:43;0.00;0.00;0.62;0.00;0.00;0.62;1.90;1.30;;;21.10;22.40;;;;;;2225318;62;20373;-69
2024/01/29 03:51:28;0.00;0.00;0.62;0.00;0.00;0.62;1.80;1.10;;;21.10;22.40;;;;;;2225163;62;20413;-68
2024/01/29 03:54:13;0.00;0.00;0.62;0.00;0.00;0.62;3.10;1.03;;;21.10;22.40;;;;;;2224990;62;20469;-68
2024/01/29 03:56:57;0.00;0.00;0.62;0.00;0.00;0.62;1.80;1.10;;;21.10;22.40;;;;;;2225166;62;20421;-67
2024/01/29 03:59:42;0.00;0.00;0.62;0.00;0.00;0.62;1.77;1.10;;;21.10;22.40;;;;;;2225314;62;20414;-67
2024/01/29 04:02:28;0.00;0.00;0.62;0.00;0.00;0.62;1.90;1.00;;;21.10;22.40;;;;;;2221981;62;20396;-67
2024/01/29 04:05:13;0.00;0.00;0.62;0.00;0.00;0.62;1.40;0.87;;;21.10;22.50;;;;;;2225028;62;20474;-67
2024/01/29 04:07:57;0.00;0.00;0.62;0.00;0.00;0.62;1.60;1.03;;;21.10;22.40;;;;;;2225239;62;20829;-68
2024/01/29 04:10:42;0.00;0.00;0.62;0.00;0.00;0.62;1.93;1.10;;;21.10;22.40;;;;;;2225074;62;20931;-67
2024/01/29 04:13:26;0.00;0.00;0.62;0.00;0.00;0.62;1.80;1.20;;;21.10;22.40;;;;;;2225265;62;20939;-68
2024/01/29 04:16:11;0.00;0.00;0.62;0.00;0.00;0.62;1.70;0.90;;;21.10;22.40;;;;;;2225071;62;20935;-67
2024/01/29 04:18:57;0.00;0.00;0.62;0.00;0.00;0.62;1.90;1.20;;;21.10;22.40;;;;;;2225390;62;20506;-68
2024/01/29 04:21:42;0.00;0.00;0.62;0.00;0.00;0.62;1.90;1.20;;;21.10;22.40;;;;;;2221782;62;20398;-67
2024/01/29 04:24:28;0.00;0.00;0.62;0.00;0.00;0.62;1.53;0.93;;;21.10;22.40;;;;;;2225160;62;20462;-67
2024/01/29 04:27:13;0.00;0.00;0.62;0.00;0.00;0.62;1.80;1.10;;;21.10;22.40;;;;;;2224991;62;20417;-67
2024/01/29 04:29:57;0.00;0.00;0.62;0.00;0.00;0.62;1.60;1.00;;;21.10;22.40;;;;;;2225054;62;20388;-67
2024/01/29 04:32:42;0.00;0.00;0.62;0.00;0.00;0.62;2.20;1.40;;;21.10;22.40;;;;;;2224907;62;20972;-67
2024/01/29 04:35:28;0.00;0.00;0.62;0.00;0.00;0.62;2.50;1.10;;;21.10;22.30;;;;;;2225254;62;20410;-67
2024/01/29 04:38:12;0.00;0.00;0.62;0.00;0.00;0.62;1.80;1.00;;;21.10;22.30;;;;;;2225087;62;20377;-67
2024/01/29 04:40:57;0.00;0.00;0.62;0.00;0.00;0.62;1.83;0.90;;;21.10;22.30;;;;;;2222053;62;20434;-68
2024/01/29 04:43:41;0.00;0.00;0.62;0.00;0.00;0.62;1.83;1.20;;;21.10;22.30;;;;;;2225283;62;20369;-74
2024/01/29 04:46:25;0.00;0.00;0.62;0.00;0.00;0.62;2.00;1.30;;;21.10;22.30;;;;;;2224939;62;20373;-67
2024/01/29 04:49:10;0.00;0.00;0.62;0.00;0.00;0.62;1.73;1.07;;;21.00;22.30;;;;;;2225144;62;20426;-67
2024/01/29 04:51:56;0.00;0.00;0.62;0.00;0.00;0.62;1.50;0.90;;;21.00;22.20;;;;;;2222003;62;20473;-68
2024/01/29 04:54:40;0.00;0.00;0.62;0.00;0.00;0.62;1.67;1.03;;;21.00;22.20;;;;;;2225173;62;20434;-67
2024/01/29 04:57:25;0.00;0.00;0.62;0.00;0.00;0.62;2.37;0.90;;;21.00;22.20;;;;;;2224916;62;20377;-68
2024/01/29 05:00:11;0.00;0.00;0.62;0.00;0.00;0.62;1.90;1.17;;;21.00;22.20;;;;;;2224912;62;20368;-67
2024/01/29 05:02:56;0.00;0.00;0.62;0.00;0.00;0.62;1.63;1.07;;;21.00;22.20;;;;;;2221899;62;20396;-66
2024/01/29 05:05:40;0.00;0.00;0.62;0.00;0.00;0.62;1.60;0.80;;;21.00;22.20;;;;;;2225024;62;20418;-67
2024/01/29 05:08:27;0.00;0.00;0.62;0.00;0.00;0.62;2.30;1.17;;;21.00;22.30;;;;;;2221967;62;20422;-68
2024/01/29 05:11:11;0.00;0.00;0.62;0.00;0.00;0.62;1.83;0.90;;;21.00;22.20;;;;;;2221488;62;20405;-67
2024/01/29 05:13:56;0.00;0.00;0.62;0.00;0.00;0.62;1.50;0.90;;;21.00;22.30;;;;;;2225020;62;20430;-69
2024/01/29 05:16:40;0.00;0.00;0.62;0.00;0.00;0.62;1.50;0.90;;;21.00;22.30;;;;;;2224736;62;20365;-67
2024/01/29 05:19:24;0.00;0.00;0.62;0.00;0.00;0.62;2.30;1.20;;;21.00;22.30;;;;;;2225023;62;20408;-67
2024/01/29 05:22:09;0.00;0.00;0.62;0.00;0.00;0.62;1.40;0.80;;;21.00;22.30;;;;;;2224735;62;20389;-67
2024/01/29 05:24:55;0.00;0.00;0.62;0.00;0.00;0.62;1.70;0.93;;;21.00;22.30;;;;;;2225045;62;20409;-69
2024/01/29 05:27:39;0.00;0.00;0.62;0.00;0.00;0.62;1.50;0.90;;;21.00;22.30;;;;;;2224876;62;20885;-67
2024/01/29 05:30:24;0.00;0.00;0.62;0.00;0.00;0.62;2.37;0.90;;;21.00;22.30;;;;;;2224568;62;20453;-67
2024/01/29 05:33:09;0.00;0.00;0.62;0.00;0.00;0.62;1.67;0.93;;;21.00;22.30;;;;;;2224909;62;20440;-67
2024/01/29 05:35:53;0.00;0.00;0.62;0.00;0.00;0.62;1.93;1.00;;;21.00;22.30;;;;;;2225080;62;20824;-67
2024/01/29 05:38:38;0.00;0.00;0.62;0.00;0.00;0.62;1.80;1.10;;;21.00;22.30;;;;;;2224581;62;20445;-70
2024/01/29 05:41:23;0.00;0.00;0.62;0.00;0.00;0.62;1.47;0.97;;;21.00;22.30;;;;;;2224925;62;20388;-66
2024/01/29 05:44:09;0.00;0.00;0.62;0.00;0.00;0.62;1.80;1.10;;;21.00;22.30;;;;;;2224911;62;20409;-66
2024/01/29 05:46:53;0.00;0.00;0.62;0.00;0.00;0.62;1.90;1.10;;;21.00;22.30;;;;;;2221635;62;20779;-66
2024/01/29 05:49:38;0.00;0.00;0.62;0.00;0.00;0.62;1.60;1.00;;;21.00;22.30;;;;;;2224864;62;20908;-66
2024/01/29 05:52:23;0.00;0.00;0.62;0.00;0.00;0.62;1.40;0.80;;;21.00;22.30;;;;;;2224628;62;20389;-66
2024/01/29 05:55:08;0.00;0.00;0.62;0.00;0.00;0.62;1.83;1.13;;;21.00;22.30;;;;;;2224812;62;20453;-68
2024/01/29 05:57:55;0.00;0.00;0.62;0.00;0.00;0.62;1.40;1.00;;;21.00;22.30;;;;;;2221616;62;20469;-67
2024/01/29 06:00:39;0.00;0.00;0.62;0.00;0.00;0.62;1.30;0.70;;;21.00;22.30;;;;;;2224604;62;20801;-67
2024/01/29 06:03:23;0.00;0.00;0.62;0.00;0.00;0.62;1.53;0.87;;;21.00;22.30;;;;;;2224940;62;20365;-66
2024/01/29 06:06:08;0.00;0.00;0.62;0.00;0.00;0.62;1.57;0.90;;;21.00;22.30;;;;;;2224834;62;20460;-66
2024/01/29 06:08:52;0.00;0.00;0.62;0.00;0.00;0.62;1.60;0.80;;;21.00;22.30;;;;;;2224744;62;20374;-66
2024/01/29 06:11:37;0.00;0.00;0.62;0.00;0.00;0.62;1.73;1.07;;;20.90;22.20;;;;;;2224755;62;20408;-67
2024/01/29 06:14:23;0.00;0.00;0.62;0.00;0.00;0.62;1.50;0.90;;;20.90;22.20;;;;;;2224921;62;20425;-67
2024/01/29 06:17:07;0.00;0.00;0.62;0.00;0.00;0.62;1.70;1.03;;;20.90;22.20;;;;;;2224620;62;20427;-68
2024/01/29 06:19:52;0.00;0.00;0.62;0.00;0.00;0.62;1.50;0.90;;;21.00;22.30;;;;;;2224899;62;20361;-67
2024/01/29 06:22:37;0.00;0.00;0.62;0.00;0.00;0.62;1.40;0.80;;;20.90;22.20;;;;;;2224358;62;20392;-66
2024/01/29 06:25:21;0.00;0.00;0.62;0.00;0.00;0.62;1.60;0.90;;;21.00;22.30;;;;;;2224875;62;20708;-66
2024/01/29 06:28:07;0.00;0.00;0.62;0.00;0.00;0.62;1.60;1.00;;;20.90;22.20;;;;;;2224782;62;20784;-67
2024/01/29 06:30:53;0.00;0.00;0.62;0.00;0.00;0.62;1.90;1.20;;;20.90;22.20;;;;;;2224599;62;20526;-66
2024/01/29 06:33:39;0.00;0.00;0.62;0.00;0.00;0.62;1.97;1.00;;;20.90;22.80;;;;;;2224817;62;20377;-66
2024/01/29 06:36:24;0.00;0.00;0.62;0.00;0.00;0.62;2.50;1.10;;;21.00;22.30;;;;;;2221453;62;20413;-70
2024/01/29 06:39:08;0.00;0.00;0.62;0.00;0.00;0.62;2.00;1.00;;;20.90;22.20;;;;;;2224635;62;20361;-66
2024/01/29 06:41:54;0.00;0.00;0.62;0.00;0.00;0.62;2.90;1.17;;;20.90;22.20;;;;;;2224714;62;20588;-66
2024/01/29 06:44:40;0.00;0.00;0.62;0.00;0.00;0.62;1.67;0.97;;;20.90;22.20;;;;;;2224683;62;20429;-67
2024/01/29 06:47:26;0.00;0.00;0.62;0.00;0.00;0.62;2.40;1.40;;;21.00;22.20;;;;;;2224677;62;20403;-66
2024/01/29 06:50:10;0.00;0.00;0.62;0.00;0.00;0.62;2.23;1.00;;;20.90;22.20;;;;;;2224596;62;20397;-67
2024/01/29 06:52:55;0.00;0.00;0.62;0.00;0.00;0.62;1.80;1.20;;;20.90;22.20;;;;;;2224518;62;21012;-70
2024/01/29 06:55:41;0.00;0.00;0.62;0.00;0.00;0.62;1.77;1.13;;;20.90;22.20;;;;;;2224648;62;20930;-67
2024/01/29 06:58:25;0.00;0.00;0.62;0.00;0.00;0.62;1.83;1.00;;;20.90;22.20;;;;;;2224358;62;20369;-67
2024/01/29 07:01:10;0.00;0.00;0.62;0.00;0.00;0.62;2.03;1.27;;;20.90;22.20;;;;;;2224584;62;20840;-66
2024/01/29 07:03:55;0.00;0.00;0.62;0.00;0.00;0.62;1.60;1.00;;;20.90;22.20;;;;;;2224501;62;20377;-68
2024/01/29 07:06:40;0.00;0.00;0.62;0.00;0.00;0.62;1.70;1.10;;;20.90;22.20;;;;;;2224537;62;20377;-67
2024/01/29 07:09:25;0.00;0.00;0.62;0.00;0.00;0.62;2.47;1.57;;;20.90;22.20;;;;;;2224482;62;21030;-66
2024/01/29 07:12:10;0.00;0.00;0.62;0.00;0.00;0.62;1.60;1.20;;;20.90;22.20;;;;;;2224233;62;20928;-66
2024/01/29 07:14:55;0.00;0.00;0.62;0.00;0.00;0.62;2.20;1.27;;;20.90;22.20;;;;;;2224635;62;20429;-68
2024/01/29 07:17:39;0.00;0.00;0.62;0.00;0.00;0.62;2.60;1.43;;;20.90;22.10;;;;;;2224454;62;20385;-66
2024/01/29 07:20:29;0.00;0.00;0.62;0.00;0.00;0.62;3.00;1.53;;;20.90;22.20;;;;;;2224662;62;20400;-66
2024/01/29 07:23:14;0.00;0.00;0.62;0.00;0.00;0.62;1.87;1.30;;;20.90;22.20;;;;;;2224577;62;20420;-66
2024/01/29 07:25:59;0.00;0.00;0.62;0.00;0.00;0.62;2.03;1.83;;;20.90;22.20;;;;;;2224682;62;20369;-66
2024/01/29 07:28:43;0.00;0.00;0.62;0.00;0.00;0.62;2.43;1.60;;;20.90;22.20;;;;;;2221477;62;20377;-65
2024/01/29 07:31:28;0.00;0.00;0.62;0.00;0.00;0.62;2.60;1.70;;;20.90;22.20;;;;;;2224417;62;20958;-66
2024/01/29 07:34:13;0.00;0.00;0.62;0.00;0.00;0.62;2.70;1.93;;;20.80;22.10;;;;;;2224563;62;20573;-66
2024/01/29 07:37:00;0.00;0.00;0.62;0.00;0.00;0.62;3.40;1.90;;;20.80;22.10;;;;;;2224554;62;20381;-67
2024/01/29 07:39:44;0.00;0.00;0.62;0.00;0.00;0.62;2.37;1.70;;;20.80;22.10;;;;;;2224731;62;20381;-66
2024/01/29 07:42:29;0.00;0.00;0.62;0.00;0.00;0.62;2.70;1.90;;;20.80;22.10;;;;;;2221183;62;20914;-68
2024/01/29 07:45:14;0.00;0.00;0.62;0.00;0.00;0.62;3.33;2.17;;;20.80;22.10;;;;;;2221250;62;20964;-66
2024/01/29 07:48:07;0.00;0.00;0.62;0.00;0.00;0.62;3.37;2.67;;;20.80;22.20;;;;;;2222710;62;20409;-66
2024/01/29 07:50:51;0.00;0.00;0.62;0.00;0.00;0.62;2.73;1.90;;;20.80;22.10;;;;;;2223958;62;20397;-67
2024/01/29 07:53:37;0.00;0.00;0.62;0.00;0.00;0.62;3.43;2.50;;;20.80;22.10;;;;;;2224385;62;20890;-67
2024/01/29 07:56:22;0.00;0.00;0.62;0.00;0.00;0.62;4.27;2.70;;;20.80;22.10;;;;;;2224450;62;20369;-67
2024/01/29 07:59:06;0.00;0.00;0.62;0.00;0.00;0.62;3.50;2.43;;;20.80;22.10;;;;;;2224636;62;20492;-66
2024/01/29 08:01:51;0.00;0.00;0.62;0.00;0.00;0.62;3.10;2.50;;;20.80;22.20;;;;;;2224258;62;20923;-68
2024/01/29 08:04:35;0.00;0.00;0.62;0.00;0.00;0.62;2.73;2.10;;;20.80;22.20;;;;;;2224429;62;20380;-66
2024/01/29 08:07:20;0.00;0.00;0.62;0.00;0.00;0.62;2.67;2.00;;;20.80;22.20;;;;;;2221369;62;20369;-66
2024/01/29 08:10:07;0.00;0.00;0.62;0.00;0.00;0.62;3.30;2.40;;;20.80;22.20;;;;;;2224447;62;20396;-66
2024/01/29 08:12:52;0.00;0.00;0.62;0.00;0.00;0.62;3.40;2.40;;;20.80;22.20;;;;;;2224348;62;20396;-67
2024/01/29 08:15:36;0.00;0.00;0.62;0.00;0.00;0.62;3.70;2.50;;;20.80;22.70;;;;;;2224503;62;20396;-66
2024/01/29 08:18:21;0.00;0.00;0.62;0.00;0.00;0.62;4.50;3.37;;;20.80;22.20;;;;;;2221210;62;20972;-66
2024/01/29 08:21:05;0.00;0.00;0.62;0.00;0.00;0.62;3.27;2.20;;;20.80;22.20;;;;;;2224333;62;20376;-66
2024/01/29 08:23:50;0.00;0.00;0.62;0.00;0.00;0.62;3.77;2.30;;;20.80;22.70;;;;;;2221725;62;20442;-67
2024/01/29 08:26:37;0.00;0.00;0.62;0.00;0.00;0.62;3.40;2.50;;;20.80;22.20;;;;;;2225258;62;20913;-66
2024/01/29 08:29:22;0.00;0.00;0.62;0.00;0.00;0.62;3.67;2.40;;;20.80;22.20;;;;;;2224962;62;20373;-67
2024/01/29 08:32:07;0.00;0.00;0.62;0.00;0.00;0.62;3.00;2.10;;;20.80;22.20;;;;;;2225310;62;20392;-66
2024/01/29 08:34:52;0.00;0.00;0.62;0.00;0.00;0.62;3.90;2.53;;;20.80;22.20;;;;;;2221732;62;20899;-67
2024/01/29 08:37:36;0.00;0.00;0.62;0.00;0.00;0.62;3.93;2.40;;;20.80;22.20;;;;;;2225098;62;20478;-67
2024/01/29 08:40:21;0.00;0.00;0.62;0.00;0.00;0.62;2.33;1.90;;;20.80;22.20;;;;;;2225166;62;20380;-66
2024/01/29 08:43:07;0.00;0.00;0.62;0.00;0.00;0.62;3.37;2.50;;;20.80;22.20;;;;;;2224820;62;20409;-66
2024/01/29 08:45:52;0.00;0.00;0.62;0.00;0.00;0.62;3.30;2.20;;;20.80;22.20;;;;;;2224937;62;20513;-67
2024/01/29 08:48:36;0.00;0.00;0.62;0.00;0.00;0.62;2.80;2.10;;;20.80;22.20;;;;;;2225088;62;20855;-69
2024/01/29 08:51:21;0.00;0.00;0.62;0.00;0.00;0.62;2.50;2.00;;;20.80;22.20;;;;;;2224605;62;20413;-67
2024/01/29 08:54:05;0.00;0.00;0.62;0.00;0.00;0.62;2.80;2.20;;;20.80;22.70;;;;;;2224894;62;20426;-66
2024/01/29 08:56:50;0.00;0.00;0.62;0.00;0.00;0.62;3.10;2.00;;;20.80;22.20;;;;;;2225027;62;20775;-67
2024/01/29 08:59:37;0.00;0.00;0.62;0.00;0.00;0.62;3.07;2.30;;;20.80;22.30;;;;;;2224909;62;20381;-66
2024/01/29 09:02:27;0.00;0.00;0.62;0.00;0.00;0.62;2.87;1.93;;;20.80;22.30;;;;;;2224931;62;20983;-69
2024/01/29 09:05:12;0.00;0.00;0.62;0.00;0.00;0.62;2.67;1.70;;;20.80;22.30;;;;;;2224763;62;20380;-66
2024/01/29 09:07:56;0.00;0.00;0.62;0.00;0.00;0.62;2.50;1.97;;;20.80;22.30;;;;;;2225006;62;20534;-68
2024/01/29 09:10:41;0.00;0.00;0.62;0.00;0.00;0.62;2.50;1.77;;;20.80;22.30;;;;;;2224790;62;20400;-67
2024/01/29 09:13:25;0.00;0.00;0.62;0.00;0.00;0.62;3.47;2.23;;;20.80;22.30;;;;;;2221626;62;20356;-66
2024/01/29 09:16:11;0.00;0.00;0.62;0.00;0.00;0.62;2.70;1.80;;;20.80;22.30;;;;;;2224969;62;20420;-66
2024/01/29 09:18:56;0.00;0.00;0.62;0.00;0.00;0.62;2.57;1.97;;;20.80;22.30;;;;;;2224571;62;20788;-67
2024/01/29 09:21:48;0.00;0.00;0.62;0.00;0.00;0.62;2.73;1.90;;;20.80;22.40;;;;;;2224887;62;20972;-69
2024/01/29 09:24:33;0.00;0.00;0.62;0.00;0.00;0.62;3.50;2.17;;;20.80;22.40;;;;;;2224977;62;20496;-65
2024/01/29 09:27:17;0.00;0.00;0.62;0.00;0.00;0.62;2.87;2.23;;;20.80;22.40;;;;;;2224717;62;20381;-66
2024/01/29 09:30:04;0.00;0.00;0.62;0.00;0.00;0.62;3.00;2.10;;;20.90;22.50;;;;;;2224970;62;20442;-65
2024/01/29 09:32:50;0.00;0.00;0.62;0.00;0.00;0.62;2.90;2.30;;;20.90;22.50;;;;;;2224976;62;20927;-66
2024/01/29 09:35:35;0.00;0.00;0.62;0.00;0.00;0.62;2.57;2.00;;;20.90;22.50;;;;;;2221448;62;20424;-67
2024/01/29 09:38:19;0.00;0.00;0.62;0.00;0.00;0.62;2.90;2.00;;;20.90;22.50;;;;;;2224752;62;20365;-65
2024/01/29 09:41:04;0.00;0.00;0.62;0.00;0.00;0.62;2.60;2.00;;;20.90;22.50;;;;;;2224620;62;20402;-65
2024/01/29 09:43:53;0.00;0.00;0.62;0.00;0.00;0.62;2.70;1.83;;;20.90;22.50;;;;;;2225678;62;20422;-67
2024/01/29 09:46:40;0.00;0.00;0.62;0.00;0.00;0.62;2.73;1.70;;;20.90;22.50;;;;;;2225834;62;20478;-66
2024/01/29 09:49:26;0.00;0.00;0.62;0.00;0.00;0.62;2.50;1.77;;;20.90;22.60;;;;;;2225615;62;20364;-72
2024/01/29 09:52:13;0.00;0.00;0.62;0.00;0.00;0.62;2.50;1.97;;;20.90;22.60;;;;;;2222308;62;20433;-66
2024/01/29 09:54:59;0.00;0.00;0.62;0.00;0.00;0.62;3.63;2.00;;;20.90;22.60;;;;;;2225710;62;20377;-66
2024/01/29 09:57:44;0.00;0.00;0.62;0.00;0.00;0.62;2.63;2.07;;;20.90;22.60;;;;;;2222673;62;20818;-68
2024/01/29 10:00:29;0.00;0.00;0.62;0.00;0.00;0.62;3.17;2.20;;;21.00;22.70;;;;;;2226352;62;20369;-67
2024/01/29 10:03:20;0.00;0.00;0.62;0.00;0.00;0.62;2.93;2.43;;;21.00;22.70;;;;;;2225716;62;20576;-67
2024/01/29 10:06:06;0.00;0.00;0.62;0.00;0.00;0.62;2.73;1.87;;;21.00;22.70;;;;;;2225451;62;20377;-67
2024/01/29 10:08:51;0.00;0.00;0.62;0.00;0.00;0.62;2.50;1.90;;;21.00;22.70;;;;;;2225781;62;20377;-67
2024/01/29 10:11:37;0.00;0.00;0.62;0.00;0.00;0.62;3.47;2.20;;;21.00;22.70;;;;;;2224646;62;20424;-67
2024/01/29 10:14:21;0.00;0.00;0.62;0.00;0.00;0.62;3.90;3.13;;;21.00;22.70;;;;;;2224676;62;20389;-67
2024/01/29 10:17:06;0.00;0.00;0.62;0.00;0.00;0.62;3.37;2.70;;;21.00;22.70;;;;;;2224700;62;20376;-68
2024/01/29 10:19:51;0.00;0.00;0.62;0.00;0.00;0.62;4.10;3.33;;;21.10;22.70;;;;;;2224424;62;20373;-68
2024/01/29 10:22:37;0.00;0.00;0.62;0.00;0.00;0.62;5.10;2.93;;;21.10;22.70;;;;;;2224409;62;20859;-67
2024/01/29 10:25:22;0.00;0.00;0.62;0.00;0.00;0.62;3.57;2.70;;;21.10;22.70;;;;;;2224443;62;20372;-67
2024/01/29 10:28:13;0.00;0.00;0.62;0.00;0.00;0.62;3.67;3.20;;;21.10;22.70;;;;;;2224364;62;20401;-68
2024/01/29 10:30:58;0.00;0.00;0.62;0.00;0.00;0.62;4.40;2.80;;;21.10;22.80;;;;;;2224453;62;21056;-67
2024/01/29 10:33:42;0.00;0.00;0.62;0.00;0.00;0.62;3.47;2.53;;;21.10;22.70;;;;;;2221576;62;20931;-68
2024/01/29 10:36:27;0.00;0.00;0.62;0.00;0.00;0.62;3.37;2.83;;;21.10;22.80;;;;;;2224397;62;20372;-67
2024/01/29 10:39:15;0.00;0.00;0.62;0.00;0.00;0.62;3.00;2.20;;;21.10;22.80;;;;;;2224535;62;20389;-68
2024/01/29 10:42:01;0.00;0.00;0.62;0.00;0.00;0.62;2.90;2.60;;;21.20;22.80;;;;;;2224283;62;20952;-68
2024/01/29 10:44:46;0.00;0.00;0.62;0.00;0.00;0.62;3.63;2.30;;;21.20;22.80;;;;;;2224515;62;20368;-67
2024/01/29 10:47:34;0.00;0.00;0.62;0.00;0.00;0.62;2.97;2.40;;;21.20;22.80;;;;;;2224600;62;20373;-70
2024/01/29 10:50:20;0.00;0.00;0.62;0.00;0.00;0.62;2.70;2.20;;;21.20;22.80;;;;;;2224235;62;20451;-67